• Join FlightAware (Why Join?)
  • Login
  • US Flag 
06:51PM EST


 

Airport Tracker/Info


-or-


 

Live Flight TrackerFlight Track Log ✈ EGF2827 ✈ 03-Aug-2013 ✈ KSYR - KORD

Flight Track Log - Related Links

Times and Time Zones

All times are in EDT time to prevent confusion due to time zone crossing. See the EGF2827 flight status page for this flight to view local times or setup timezone preferences in your user account.

Time Position Orientation Groundspeed Altitude Reporting Facility
EDT Latitude Longitude Course Direction KTS MPH feet Rate Location/Type
07:07AM 43.1144 -76.1778 286° West 165 190 2,300  Level Boston Center
07:08AM 43.1679 -76.3037 295° West  Level FlightAware Approximate
07:09AM 43.1833 -76.4131 270° West  Level FlightAware Approximate
07:09AM 43.1667 -76.3017 300° West 211 243 6,900  Level Cleveland Center
07:10AM 43.2022 -76.5152 281° West  Level FlightAware Approximate
07:10AM 43.1903 -76.3742 294° West 211 243 9,300  Level Cleveland Center
07:11AM 43.2189 -76.6269 286° West  Level FlightAware Approximate
07:11AM 43.2036 -76.4531 283° West 211 243 11,100  Level Cleveland Center
07:12AM 43.2424 -76.7363 286° West  Level FlightAware Approximate
07:12AM 43.2169 -76.5406 282° West 223 257 12,900  Level Cleveland Center
07:13AM 43.2328 -76.6336 283° West 239 275 14,600 1,680 Climbing Cleveland Center
07:14AM 43.2483 -76.7267 283° West 250 288 16,300 1,680 Climbing Cleveland Center
07:15AM 43.2639 -76.8197 283° West 255 293 18,000 1,560 Climbing Cleveland Center
07:16AM 43.2631 -76.9197 269° West 255 293 19,500 1,440 Climbing Cleveland Center
07:17AM 43.2619 -77.0222 269° West 262 302 21,000 1,500 Climbing Cleveland Center
07:18AM 43.2586 -77.1167 267° West 274 315 22,600 1,560 Climbing Cleveland Center
07:19AM 43.2556 -77.2222 268° West 274 315 24,200 1,560 Climbing Cleveland Center
07:20AM 43.2542 -77.3250 269° West 274 315 25,800 1,500 Climbing Cleveland Center
07:21AM 43.2531 -77.4278 269° West 274 315 27,300 1,560 Climbing Cleveland Center
07:22AM 43.2536 -77.5247 270° West 269 310 28,900 1,440 Climbing Cleveland Center
07:23AM 43.2497 -77.6189 267° West 264 304 30,200 1,140 Climbing Cleveland Center
07:24AM 43.2500 -77.7186 270° West 259 298 31,200 960 Climbing Cleveland Center
07:25AM 43.2464 -77.8186 267° West 259 298 32,200 840 Climbing Cleveland Center
07:26AM 43.2444 -77.9214 269° West 259 298 33,000 360 Climbing Cleveland Center
07:27AM 43.2428 -78.0239 269° West 270 311 33,000  Level Cleveland Center
07:28AM 43.2386 -78.1297 267° West 275 316 33,000  Level Cleveland Center
07:29AM 43.2367 -78.2381 269° West 280 322 33,000  Level Cleveland Center
07:30AM 43.2347 -78.3436 269° West 280 322 33,000  Level Cleveland Center
07:31AM 43.2347 -78.4489 270° West 280 322 33,000  Level Cleveland Center
07:32AM 43.2489 -78.5539 281° West 275 316 33,000 540 Level Cleveland Center
07:33AM 43.2653 -78.6589 282° West 280 322 34,100 1,080 Climbing Cleveland Center
07:34AM 43.2794 -78.7611 281° West 280 322 35,200 900 Climbing Cleveland Center
07:35AM 43.2831 -78.8608 273° West 275 316 35,900 300 Climbing Cleveland Center
07:36AM 43.2667 -79.0167 262° West 290 334 36,000  Climbing Toronto Center
07:37AM 43.2667 -79.1333 270° West 310 357 36,000  Level Toronto Center
07:38AM 43.2500 -79.2500 259° West 320 368 36,000  Level Toronto Center
07:39AM 43.2500 -79.3833 270° West 330 380 36,000  Level Toronto Center
07:40AM 43.2333 -79.5000 259° West 340 391 36,000  Level Toronto Center
07:41AM 43.2333 -79.6333 270° West 340 391 36,000  Level Toronto Center
07:42AM 43.2333 -79.7667 270° West 350 403 36,000  Level Toronto Center
07:43AM 43.2167 -79.9000 260° West 350 403 36,000  Level Toronto Center
07:44AM 43.2167 -80.0500 270° West 350 403 36,000  Level Toronto Center
07:45AM 43.2000 -80.1833 260° West 360 414 36,000  Level Toronto Center
07:46AM 43.2000 -80.3167 270° West 360 414 36,000  Level Toronto Center
07:47AM 43.2000 -80.4500 270° West 360 414 36,000  Level Toronto Center
07:48AM 43.1833 -80.6000 261° West 360 414 36,000  Level Toronto Center
07:49AM 43.1833 -80.7333 270° West 360 414 36,000  Level Toronto Center
07:50AM 43.1500 -80.8667 251° West 360 414 36,000  Level Toronto Center
07:51AM 43.1500 -81.0000 270° West 360 414 36,000  Level Toronto Center
07:52AM 43.1500 -81.1333 270° West 360 414 36,000  Level Toronto Center
07:53AM 43.1333 -81.2833 261° West 360 414 36,000  Level Toronto Center
07:54AM 43.1333 -81.4000 270° West 360 414 36,000  Level Toronto Center
07:55AM 43.1167 -81.5500 261° West 360 414 36,000  Level Toronto Center
07:56AM 43.1167 -81.6667 270° West 360 414 36,000  Level Toronto Center
07:57AM 43.1167 -81.8333 270° West 360 414 36,000  Level Toronto Center
07:58AM 43.0833 -81.9333 245° Southwest 360 414 36,000  Level Toronto Center
07:59AM 43.0833 -82.1000 270° West 360 414 36,000 -240 Level Toronto Center
08:00AM 43.0667 -82.2333 260° West 360 414 35,600 -720 Descending Toronto Center
08:01AM 43.0667 -82.3667 270° West 370 426 34,600 -960 Descending Toronto Center
08:02AM 43.0500 -82.5000 260° West 370 426 33,700 -960 Descending Toronto Center
08:03AM 43.0333 -82.6500 261° West 380 437 32,700 -1,020 Descending Toronto Center
08:04AM 43.0333 -82.8000 270° West 380 437 31,700 -1,020 Descending Toronto Center
08:05AM 43.0167 -82.9333 260° West 380 437 30,700 -900 Descending Toronto Center
08:06AM 43.0167 -83.0833 270° West 380 437 30,000 -360 Descending Toronto Center
08:07AM 42.9833 -83.2167 251° West 380 437 30,000  Level Toronto Center
08:08AM 42.9833 -83.3667 270° West 380 437 30,000  Level Toronto Center
08:09AM 42.9833 -83.5000 270° West 390 449 30,000  Level Toronto Center
08:10AM 42.9667 -83.6500 261° West 390 449 30,000  Level Toronto Center
08:11AM 42.9500 -83.8000 261° West 390 449 30,000  Level Toronto Center
08:12AM 42.9503 -83.9119 270° West 390 449 30,000  Level Chicago Center
08:12AM 42.9433 -83.9953 264° West 385 443 30,000  Level Cleveland Center
08:13AM 42.9261 -84.1447 261° West 390 449 30,000  Level Cleveland Center
08:15AM 42.9067 -84.3494 263° West 389 448 30,000  Level Chicago Center
08:16AM 42.8931 -84.4950 263° West 388 447 30,000  Level Chicago Center
08:17AM 42.8775 -84.6392 262° West 386 444 30,000  Level Chicago Center
08:18AM 42.8594 -84.8131 262° West 387 445 30,000  Level Chicago Center
08:19AM 42.8447 -84.9572 262° West 385 443 30,000  Level Chicago Center
08:20AM 42.8297 -85.1017 262° West 386 444 30,000  Level Chicago Center
08:21AM 42.8139 -85.2464 262° West 386 444 30,000  Level Chicago Center
08:22AM 42.7986 -85.3908 262° West 385 443 30,000  Level Chicago Center
08:23AM 42.7811 -85.5347 261° West 384 442 30,000 -300 Level Chicago Center
08:24AM 42.7542 -85.6772 256° West 387 445 29,400 -1,500 Descending Chicago Center
08:25AM 42.7281 -85.8214 256° West 390 449 27,000 -2,460 Descending Chicago Center
08:26AM 42.7028 -85.9650 257° West 388 447 24,500 -2,640 Descending Chicago Center
08:27AM 42.6700 -86.1392 256° West 394 453 21,600 -2,280 Descending Chicago Center
08:28AM 42.6439 -86.2831 256° West 392 451 19,800 -1,800 Descending Chicago Center
08:29AM 42.6158 -86.4194 254° West 378 435 18,000 -1,740 Descending Chicago Center
08:30AM 42.5919 -86.5558 257° West 373 429 16,300 -1,740 Descending Chicago Center
08:31AM 42.5675 -86.6906 256° West 369 425 14,500 -1,800 Descending Chicago Center
08:32AM 42.5361 -86.8189 252° West 363 418 12,700 -1,740 Descending Chicago Center
08:33AM 42.5011 -86.9444 249° West 358 412 11,000 -1,320 Descending Chicago Center
08:34AM 42.4597 -87.0933 249° West 353 406 10,000 -540 Descending Chicago Center
08:35AM 42.4278 -87.2094 250° West 335 386 10,000 -480 Level Chicago Center
08:36AM 42.3914 -87.2939 240° Southwest 281 323 9,100 -600 Descending Chicago Center
08:37AM 42.3106 -87.3356 201° Southwest 291 335 8,800 -900 Descending Chicago Center
08:38AM 42.2397 -87.3739 202° Southwest 278 320 7,300 -900 Descending Chicago Center
08:39AM 42.1708 -87.4164 205° Southwest 275 316 7,000 -540 Descending Chicago Center
08:41AM 42.1028 -87.4575 204° Southwest 271 312 6,300 -540 Descending Chicago Center
08:42AM 42.0375 -87.5017 207° Southwest 266 306 5,900 -600 Descending Chicago Center
08:43AM 41.9917 -87.5947 236° Southwest 262 302 5,100 -1,020 Descending Chicago Center
08:44AM 41.9814 -87.6856 261° West 251 289 3,900 -1,320 Descending Chicago Center
08:45AM 41.9836 -87.7669 272° West 235 270 2,500 -1,140 Descending Chicago Center
08:46AM 41.9842 -87.8350 271° West 210 242 1,600 -660 Descending Chicago Center
08:47AM 41.9825 -87.8922 268° West 194 223 1,200 -420 Descending Chicago Center